Fountain Hills AZ Speed Test Log

Averages  Max Speed    
1 to 25 of 4126** for City Fountain Hills AZ
Time
  
    Size    Speed   User ConnectID Provider    
9/20/19 12:36:08 am 688 kB 527 kbps 66 kB/s64736360001Centurylink gB_EmAd2N 
9/20/19 12:35:51 am 1.6 MB 862 kbps 108 kB/s64736360001Centurylink SjRGqV6DC 
9/19/19 3:43:13 am 14.2 MB 6.85 Mbps 856 kB/s4155985745135Cox GKpXx9zHw 
9/19/19 3:34:28 am 1.7 MB 1.28 Mbps 160 kB/s4155985745135Cox Iu8jyXVE_ 
9/19/19 3:31:38 am 2.5 MB 2.8 Mbps 350 kB/s4155985745135Cox HQpkA4aJ~ 
9/19/19 3:31:25 am 2.5 MB 1.73 Mbps 216 kB/s4155985745135Cox uQF9RsxRl 
9/19/19 3:30:34 am 480 kB 530 kbps 66 kB/s4155985745135Cox w56jl6apT 
9/16/19 11:32:29 pm 13.7 MB 7.29 Mbps 911 kB/s14230538781221Cox Qcar~hR~Y 
9/13/19 1:09:32 am 688 kB 529 kbps 66 kB/s647363599220Centurylink pudOUnGRg 
9/13/19 1:09:16 am 2.2 MB 1.34 Mbps 168 kB/s647363599220Centurylink mAmYZzNs2 
9/13/19 12:47:19 am 688 kB 527 kbps 66 kB/s647363599220Centurylink XiAIH~D_A 
9/13/19 12:47:02 am 2.4 MB 1.3 Mbps 163 kB/s647363599220Centurylink yZ68uJV5k 
9/13/19 12:16:17 am 256 kB 391 kbps 49 kB/s647363587757Centurylink WjTew1VLI 
9/13/19 12:16:11 am 480 kB 473 kbps 59 kB/s647363587757Centurylink EFYBOSwxM 
9/12/19 12:23:47 am 77.7 MB 22.68 Mbps 2.84 MB/s64937450500836Cox xLeORLkXk 
9/8/19 2:13:00 pm 2.4 MB 962 kbps 120 kB/s2223938282702Cox m-kgjhd5J 
8/31/19 1:12:29 am 2.3 MB 915 kbps 114 kB/s57303792208328Cox l0YYNWH1C 
8/29/19 10:14:01 pm 6.9 MB 9.9 Mbps 1.24 MB/s63258635476Cox jIVsht0qf 
8/29/19 10:13:24 pm 87.5 MB 32.15 Mbps 4.02 MB/s63258635476Cox YtBtuZq3a 
8/29/19 10:10:14 pm 7.6 MB 10.93 Mbps 1.37 MB/s63258635476Cox 3NgFktQTW 
8/29/19 10:09:26 pm 23.5 MB 17.88 Mbps 2.23 MB/s63258635476Cox xqhugUFHi 
8/28/19 1:31:28 am 22.9 MB 5.02 Mbps 627 kB/s73029031097628Cox pEIW9fACw 
8/28/19 1:12:06 am 2.6 MB 2.62 Mbps 328 kB/s73029031097628Cox 2N0V9ejZs 
8/25/19 10:06:35 pm 6.3 MB 8.58 Mbps 1.07 MB/s65437891300093Cox baO2aIZHC 
8/25/19 10:06:24 pm 77.1 MB 96.31 Mbps 12.04 MB/s65437891300093Cox pBXcOej1a 
  
** Partial Results: The most recent results have been displayed. Results over 50 Mbps are highlighted.
Calculated from graphed results above not entire query.
Displaying Internet Speed Test results for City Fountain Hills AZ

Minimum

Min 0.47 Mbps : 0.39 Mbps

Average

Avg 11.28 Mbps : 4.48 Mbps

Maximum

Max 96.31 Mbps : 10.93 Mbps

Minimum

Min: 0.47 Mbps : 0.39 Mbps |

Average

Avg: 11.28 Mbps : 4.48 Mbps |

Maximum

Max: 96.31 Mbps : 10.93 Mbps